Time;durP1;ratioP1;P1;durP2;ratioP2;P2;SDS_P1;SDS_P2;PMS_P1;PMS_P2;Temp;Humidity;BMP_temperature;BMP_pressure;BME280_temperature;BME280_humidity;BME280_pressure;Samples;Min_cycle;Max_cycle;Signal;HPM_P1;HPM_P2
2022/01/31 00:01:59;;;;;;;8.80;3.28;;;;;;;18.68;43.60;101518.78;5012974;28;20084;-67
2022/01/31 00:04:24;;;;;;;8.75;3.40;;;;;;;18.64;43.70;101478.56;5011303;28;20474;-66
2022/01/31 00:06:49;;;;;;;7.78;3.17;;;;;;;18.62;43.83;101464.63;5012594;28;20042;-67
2022/01/31 00:09:17;;;;;;;7.80;2.80;;;;;;;18.59;43.91;101441.09;5012375;28;20022;-67
2022/01/31 00:11:51;;;;;;;6.63;2.75;;;;;;;18.58;43.46;101425.38;5011530;28;20481;-66
2022/01/31 00:14:30;;;;;;;5.75;3.00;;;;;;;18.55;43.77;101412.41;5012254;28;20066;-66
2022/01/31 00:16:55;;;;;;;6.65;2.75;;;;;;;18.53;43.97;101409.03;5011715;28;20034;-66
2022/01/31 00:19:21;;;;;;;9.30;3.28;;;;;;;18.51;43.31;101418.88;5012074;28;20168;-66
2022/01/31 00:21:46;;;;;;;6.60;2.92;;;;;;;18.48;43.92;101401.44;5012474;28;20448;-67
2022/01/31 00:24:11;;;;;;;6.70;2.67;;;;;;;18.42;43.97;101378.16;5011311;28;20536;-67
2022/01/31 00:26:36;;;;;;;8.63;3.23;;;;;;;18.44;44.18;101390.28;5012257;28;20754;-67
2022/01/31 00:29:02;;;;;;;7.97;2.90;;;;;;;18.42;43.91;101371.09;5012285;28;20287;-67
2022/01/31 00:31:27;;;;;;;7.78;3.28;;;;;;;18.39;44.08;101371.31;5011033;28;20033;-67
2022/01/31 00:33:52;;;;;;;8.18;3.13;;;;;;;18.39;43.39;101362.53;5013166;28;20049;-66
2022/01/31 00:36:17;;;;;;;6.90;2.50;;;;;;;18.38;43.93;101350.31;5015747;28;20033;-67
2022/01/31 00:38:43;;;;;;;6.93;2.80;;;;;;;18.33;43.61;101332.19;5015076;28;20038;-67
2022/01/31 00:41:08;;;;;;;7.28;3.22;;;;;;;18.33;44.10;101326.09;5015555;28;20050;-67
2022/01/31 00:43:36;;;;;;;7.53;3.22;;;;;;;18.29;43.97;101310.47;5015794;28;20053;-67
2022/01/31 00:46:08;;;;;;;6.65;2.95;;;;;;;18.29;44.05;101293.78;5015056;28;20394;-67
2022/01/31 00:48:40;;;;;;;8.38;3.15;;;;;;;18.26;43.93;101272.91;5015753;28;20041;-67
2022/01/31 00:51:06;;;;;;;7.85;3.28;;;;;;;18.25;43.88;101274.72;5015802;28;20038;-67
2022/01/31 00:53:31;;;;;;;8.00;2.90;;;;;;;18.23;44.14;101267.84;5014573;28;20553;-67
2022/01/31 00:55:56;;;;;;;7.60;2.77;;;;;;;18.23;44.11;101270.50;5015650;28;20071;-67
2022/01/31 00:58:21;;;;;;;8.37;2.77;;;;;;;18.21;43.80;101248.69;5015077;28;20329;-67
2022/01/31 01:00:47;;;;;;;7.38;2.88;;;;;;;18.20;43.77;101234.66;5014743;28;20091;-67
2022/01/31 01:03:12;;;;;;;7.47;2.70;;;;;;;18.17;44.39;101226.97;5015050;28;20022;-69
2022/01/31 01:05:37;;;;;;;7.35;2.53;;;;;;;18.16;44.61;101217.38;5015457;28;20034;-67
2022/01/31 01:08:06;;;;;;;7.13;2.70;;;;;;;18.13;44.37;101214.94;5014716;28;20029;-68
2022/01/31 01:10:31;;;;;;;6.28;2.50;;;;;;;18.13;44.46;101221.09;5015025;28;20030;-67
2022/01/31 01:12:56;;;;;;;7.68;2.78;;;;;;;18.12;44.57;101205.38;5015234;28;20037;-67
2022/01/31 01:15:24;;;;;;;6.85;2.80;;;;;;;18.10;44.52;101197.59;5013935;28;20474;-67
2022/01/31 01:17:50;;;;;;;8.73;2.80;;;;;;;18.07;44.46;101176.72;5015101;28;20489;-67
2022/01/31 01:20:16;;;;;;;9.15;2.80;;;;;;;18.07;44.62;101173.22;5014439;28;20038;-66
2022/01/31 01:22:42;;;;;;;7.30;2.78;;;;;;;18.05;44.52;101151.41;5014964;28;20047;-67
2022/01/31 01:25:08;;;;;;;8.30;2.50;;;;;;;18.05;44.62;101148.75;5014849;28;20042;-67
2022/01/31 01:27:36;;;;;;;5.25;2.60;;;;;;;18.04;44.69;101140.03;5014199;28;20474;-67
2022/01/31 01:30:05;;;;;;;8.70;2.60;;;;;;;18.02;44.65;101122.63;5014990;28;20026;-67
2022/01/31 01:32:44;;;;;;;6.82;2.78;;;;;;;18.02;44.64;101125.25;5014763;28;20037;-67
2022/01/31 01:35:13;;;;;;;6.25;2.40;;;;;;;18.00;44.70;101108.72;5013920;28;20091;-67
2022/01/31 01:37:41;;;;;;;6.32;2.08;;;;;;;17.97;44.79;101091.31;5014667;28;20021;-67
2022/01/31 01:40:10;;;;;;;7.10;2.33;;;;;;;17.97;44.82;101093.13;5014604;28;20045;-66
2022/01/31 01:42:35;;;;;;;6.18;2.33;;;;;;;17.95;44.94;101086.16;5013885;28;20038;-67
2022/01/31 01:45:00;;;;;;;9.52;2.78;;;;;;;17.94;45.03;101089.78;5014587;28;20033;-67
2022/01/31 01:47:26;;;;;;;5.73;2.40;;;;;;;17.93;45.24;101076.72;5014395;28;20240;-67
2022/01/31 01:49:53;;;;;;;7.15;2.50;;;;;;;17.90;45.18;101058.50;5014044;28;20290;-66
2022/01/31 01:52:19;;;;;;;5.90;2.10;;;;;;;17.91;45.30;101055.75;5014086;28;20038;-66
2022/01/31 01:54:45;;;;;;;6.78;2.55;;;;;;;17.90;44.95;101047.94;5014458;28;20473;-66
2022/01/31 01:57:10;;;;;;;6.38;2.33;;;;;;;17.88;45.46;101020.84;5013305;28;20034;-65
2022/01/31 01:59:37;;;;;;;6.90;2.17;;;;;;;17.89;45.18;101018.06;5014491;28;20425;-66
2022/01/31 02:02:04;;;;;;;7.70;2.33;;;;;;;17.87;45.49;101014.69;5014297;28;20782;-66
2022/01/31 02:04:30;;;;;;;7.45;2.40;;;;;;;17.86;44.89;101004.28;5013226;28;20030;-67
2022/01/31 02:06:55;;;;;;;5.50;2.20;;;;;;;17.84;45.39;100993.84;5014253;28;20034;-67
2022/01/31 02:09:26;;;;;;;5.65;2.20;;;;;;;17.83;45.07;100986.06;5013513;28;20048;-66
2022/01/31 02:11:54;;;;;;;6.13;2.15;;;;;;;17.81;45.10;100982.72;5014122;28;20508;-66
2022/01/31 02:14:23;;;;;;;7.50;2.30;;;;;;;17.81;45.35;100967.72;5013904;28;20052;-66
2022/01/31 02:16:50;;;;;;;8.18;2.30;;;;;;;17.80;45.48;100971.34;5013522;28;20022;-67
2022/01/31 02:19:17;;;;;;;8.10;2.40;;;;;;;17.79;45.24;100966.19;5013882;28;20049;-66
2022/01/31 02:21:53;;;;;;;6.63;2.13;;;;;;;17.78;45.24;100952.13;5014021;28;20449;-66
2022/01/31 02:24:19;;;;;;;7.20;2.33;;;;;;;17.77;45.20;100953.13;5012888;28;20454;-66
2022/01/31 02:26:45;;;;;;;6.68;2.10;;;;;;;17.76;45.69;100946.16;5014059;28;20114;-66
2022/01/31 02:29:11;;;;;;;6.65;2.33;;;;;;;17.77;46.28;100951.31;5013665;28;20022;-66
2022/01/31 02:31:41;;;;;;;9.38;2.30;;;;;;;17.78;46.43;100954.78;5013434;28;20061;-66
2022/01/31 02:34:07;;;;;;;7.20;2.15;;;;;;;17.81;46.55;100951.06;5013674;28;20042;-66
2022/01/31 02:36:32;;;;;;;7.00;2.10;;;;;;;17.84;46.62;100954.28;5013695;28;20045;-66
2022/01/31 02:38:57;;;;;;;5.60;1.80;;;;;;;17.85;46.71;100955.97;5012934;28;20029;-67
2022/01/31 02:41:30;;;;;;;6.73;1.97;;;;;;;17.88;46.79;100942.59;5013265;28;20326;-66
2022/01/31 02:43:55;;;;;;;7.35;1.90;;;;;;;17.89;46.50;100938.16;5013872;28;20275;-66
2022/01/31 02:46:24;;;;;;;4.80;1.70;;;;;;;17.90;46.29;100918.75;5012589;28;20017;-67
2022/01/31 02:48:52;;;;;;;7.25;1.90;;;;;;;17.91;46.17;100913.34;5013629;28;20033;-67
2022/01/31 02:51:21;;;;;;;5.30;2.00;;;;;;;17.92;46.02;100920.28;5013236;28;20034;-66
2022/01/31 02:53:47;;;;;;;5.25;2.00;;;;;;;17.92;46.04;100896.56;5012932;28;20113;-66
2022/01/31 02:56:12;;;;;;;4.93;1.80;;;;;;;17.92;46.14;100907.09;5012622;28;20489;-67
2022/01/31 02:58:38;;;;;;;4.38;1.77;;;;;;;17.93;46.57;100903.50;5012781;28;20048;-67
2022/01/31 03:01:03;;;;;;;5.57;1.75;;;;;;;17.92;46.57;100891.28;5013617;28;20032;-67
2022/01/31 03:03:29;;;;;;;5.60;1.88;;;;;;;17.92;46.83;100893.91;5012962;28;20037;-66
2022/01/31 03:05:54;;;;;;;4.97;1.80;;;;;;;17.93;47.00;100897.41;5012614;28;20481;-66
2022/01/31 03:08:22;;;;;;;4.28;1.63;;;;;;;17.92;46.54;100901.81;5013062;28;20046;-66
2022/01/31 03:10:56;;;;;;;5.05;2.05;;;;;;;17.92;46.76;100912.38;5013255;28;20044;-66
2022/01/31 03:13:22;;;;;;;7.07;1.90;;;;;;;17.92;46.71;100901.81;5011937;28;20056;-67
2022/01/31 03:15:49;;;;;;;4.93;1.75;;;;;;;17.92;46.36;100908.91;5013041;28;20400;-66
2022/01/31 03:18:14;;;;;;;5.20;1.55;;;;;;;17.92;46.36;100906.28;5012698;28;20386;-66
2022/01/31 03:20:39;;;;;;;5.77;1.60;;;;;;;17.92;46.23;100895.72;5012249;28;20033;-66
2022/01/31 03:23:05;;;;;;;7.25;1.80;;;;;;;17.91;46.44;100883.50;5013349;28;20774;-66
2022/01/31 03:25:30;;;;;;;6.90;1.60;;;;;;;17.91;46.92;100868.53;5012625;28;20057;-66
2022/01/31 03:27:56;;;;;;;6.53;2.00;;;;;;;17.92;46.70;100869.34;5012295;28;20045;-66
2022/01/31 03:30:25;;;;;;;5.65;1.73;;;;;;;17.92;46.83;100880.72;5012360;28;20081;-66
2022/01/31 03:32:51;;;;;;;6.95;1.77;;;;;;;17.94;46.71;100880.63;5012649;28;20044;-66
2022/01/31 03:35:17;;;;;;;5.30;1.60;;;;;;;17.95;46.94;100877.84;5011889;28;20022;-66
2022/01/31 03:37:42;;;;;;;4.60;1.70;;;;;;;17.95;46.69;100866.47;5012795;28;20061;-66
2022/01/31 03:40:09;;;;;;;8.30;1.90;;;;;;;17.95;46.90;100861.19;5012338;28;20033;-65
2022/01/31 03:42:36;;;;;;;5.45;2.28;;;;;;;17.97;46.94;100859.28;5012067;28;20029;-65
2022/01/31 03:45:02;;;;;;;6.13;1.95;;;;;;;17.98;46.75;100852.22;5012730;28;20030;-66
2022/01/31 03:47:27;;;;;;;4.63;1.75;;;;;;;17.99;46.71;100846.81;5012073;28;20398;-65
2022/01/31 03:49:53;;;;;;;5.43;1.73;;;;;;;17.99;46.76;100848.59;5012202;28;20042;-66
2022/01/31 03:52:19;;;;;;;6.30;1.92;;;;;;;17.98;46.51;100845.13;5012368;28;20381;-66
2022/01/31 03:54:44;;;;;;;5.05;1.63;;;;;;;17.99;46.59;100849.47;5012795;28;20072;-67
2022/01/31 03:57:10;;;;;;;6.28;1.90;;;;;;;17.98;46.95;100842.50;5011371;28;20371;-66
2022/01/31 03:59:35;;;;;;;6.75;2.00;;;;;;;17.99;46.63;100845.97;5012357;28;20037;-66
2022/01/31 04:02:06;;;;;;;6.28;1.63;;;;;;;17.97;46.51;100843.44;5011664;28;20038;-66
2022/01/31 04:04:31;;;;;;;4.82;1.70;;;;;;;17.97;46.31;100848.72;5012557;28;20101;-66
2022/01/31 04:06:57;;;;;;;4.30;1.50;;;;;;;17.98;46.39;100857.50;5012899;28;20410;-66
2022/01/31 04:09:22;;;;;;;5.10;1.48;;;;;;;17.97;46.35;100863.72;5015260;28;20109;-66
2022/01/31 04:11:47;;;;;;;6.25;1.88;;;;;;;17.94;46.15;100856.88;5016464;28;20042;-66
2022/01/31 04:14:15;;;;;;;5.47;1.70;;;;;;;17.93;46.08;100850.78;5016094;28;20024;-67
2022/01/31 04:16:41;;;;;;;6.18;1.85;;;;;;;17.94;46.06;100839.28;5015466;28;20267;-66
2022/01/31 04:19:06;;;;;;;5.30;1.92;;;;;;;17.93;46.22;100850.78;5016264;28;20042;-66
2022/01/31 04:21:31;;;;;;;6.38;1.45;;;;;;;17.92;46.30;100849.09;5016296;28;20041;-67
2022/01/31 04:23:58;;;;;;;7.15;1.50;;;;;;;17.92;46.42;100825.38;5015399;28;20406;-67
2022/01/31 04:26:23;;;;;;;6.05;1.70;;;;;;;17.94;46.36;100819.97;5015764;28;20092;-66
2022/01/31 04:28:51;;;;;;;4.97;1.52;;;;;;;17.94;46.49;100827.88;5016088;28;20077;-66
2022/01/31 04:33:50;;;;;;;5.82;1.63;;;;;;;17.94;46.41;100822.59;5016206;28;20046;-66
2022/01/31 04:36:15;;;;;;;5.60;1.50;;;;;;;17.95;46.12;100833.03;5015783;28;20372;-67
2022/01/31 04:38:44;;;;;;;5.68;1.88;;;;;;;17.96;46.28;100828.63;5015101;28;20477;-66
2022/01/31 04:41:10;;;;;;;6.32;1.58;;;;;;;17.95;45.69;100833.03;5015329;28;20482;-66
2022/01/31 04:43:35;;;;;;;6.00;1.42;;;;;;;17.95;45.91;100827.75;5015650;28;20026;-67
2022/01/31 04:46:04;;;;;;;7.40;1.42;;;;;;;17.96;45.82;100828.63;5014982;28;20028;-66
2022/01/31 04:48:36;;;;;;;4.82;1.60;;;;;;;17.95;45.66;100834.84;5015866;28;20042;-66
2022/01/31 04:51:02;;;;;;;6.35;1.75;;;;;;;17.95;45.92;100822.47;5015795;28;20057;-67
2022/01/31 04:53:27;;;;;;;6.25;1.88;;;;;;;17.94;45.70;100825.25;5014497;28;20474;-66
2022/01/31 04:55:55;;;;;;;6.97;1.90;;;;;;;17.95;45.83;100826.94;5015509;28;20034;-66
2022/01/31 04:58:22;;;;;;;8.82;2.00;;;;;;;17.94;45.91;100817.34;5014393;28;20442;-66
2022/01/31 05:00:51;;;;;;;6.38;1.55;;;;;;;17.95;46.05;100837.47;5015657;28;20080;-66
2022/01/31 05:03:19;;;;;;;6.80;1.55;;;;;;;17.93;45.66;100821.78;5015040;28;20041;-66
2022/01/31 05:05:45;;;;;;;6.05;1.58;;;;;;;17.92;45.65;100821.91;5014914;28;20037;-66
2022/01/31 05:08:11;;;;;;;6.03;1.58;;;;;;;17.92;45.80;100830.63;5015199;28;20080;-66
2022/01/31 05:10:43;;;;;;;6.43;1.75;;;;;;;17.93;45.70;100832.31;5015382;28;20034;-66
2022/01/31 05:13:08;;;;;;;6.32;1.63;;;;;;;17.93;45.77;100813.03;5014221;28;20480;-66
2022/01/31 05:15:33;;;;;;;6.93;1.52;;;;;;;17.95;45.63;100813.75;5015284;28;20030;-67
2022/01/31 05:17:59;;;;;;;5.90;1.40;;;;;;;17.92;45.54;100806.09;5015339;28;20034;-67
2022/01/31 05:20:24;;;;;;;5.63;1.50;;;;;;;17.94;45.24;100812.06;5013383;28;20279;-66
2022/01/31 05:22:49;;;;;;;7.90;1.60;;;;;;;17.97;45.12;100805.72;5014956;28;20294;-67
2022/01/31 05:25:14;;;;;;;6.00;1.48;;;;;;;17.96;45.26;100796.97;5014800;28;20283;-66
2022/01/31 05:27:40;;;;;;;5.85;1.80;;;;;;;17.95;44.94;100797.94;5014097;28;20108;-67
2022/01/31 05:30:05;;;;;;;7.30;1.63;;;;;;;17.95;44.59;100790.00;5015111;28;20026;-67
2022/01/31 05:32:31;;;;;;;7.50;1.95;;;;;;;17.95;44.57;100787.38;5014395;28;20034;-65
2022/01/31 05:35:01;;;;;;;6.97;1.70;;;;;;;17.94;44.75;100781.28;5014204;28;20038;-67
2022/01/31 05:37:27;;;;;;;5.50;1.50;;;;;;;17.94;45.19;100777.78;5014641;28;20416;-66
2022/01/31 05:39:52;;;;;;;6.03;1.50;;;;;;;17.97;45.46;100767.00;5014590;28;20037;-66
2022/01/31 05:42:17;;;;;;;7.70;1.87;;;;;;;17.97;44.85;100761.72;5013394;28;20466;-65
2022/01/31 05:44:46;;;;;;;7.50;1.60;;;;;;;17.99;45.42;100764.22;5014808;28;20272;-66
2022/01/31 05:47:14;;;;;;;;;;;;;;;17.99;44.72;100764.22;5014536;28;20353;-66
2022/01/31 05:49:40;;;;;;;6.20;1.48;;;;;;;17.99;44.50;100761.59;5013787;28;19948;-65
2022/01/31 05:52:07;;;;;;;7.13;1.90;;;;;;;17.99;44.63;100745.75;5014493;28;20053;-65
2022/01/31 05:54:34;;;;;;;6.53;1.60;;;;;;;17.99;44.97;100754.53;5013577;28;20045;-66
2022/01/31 05:56:59;;;;;;;;;;;;;;;18.00;45.12;100732.47;5014776;28;20030;-66
2022/01/31 05:59:25;;;;;;;5.67;1.43;;;;;;;17.99;44.75;100759.81;5014342;28;20427;-66
2022/01/31 06:01:54;;;;;;;7.68;1.60;;;;;;;17.99;44.87;100780.03;5013468;28;20280;-66
2022/01/31 06:04:20;;;;;;;6.23;1.50;;;;;;;17.99;44.56;100774.78;5014089;28;20042;-66
2022/01/31 06:06:45;;;;;;;7.50;1.70;;;;;;;18.01;44.77;100776.34;5014198;28;20038;-66
2022/01/31 06:09:10;;;;;;;8.02;1.50;;;;;;;18.03;44.91;100760.38;5013097;28;20029;-66
2022/01/31 06:11:36;;;;;;;6.25;1.55;;;;;;;18.06;45.85;100768.03;5014603;28;20065;-68
2022/01/31 06:14:02;;;;;;;5.10;1.38;;;;;;;18.10;46.85;100777.38;5013934;28;20026;-66
2022/01/31 06:16:28;;;;;;;5.30;1.50;;;;;;;18.12;46.92;100796.56;5013075;28;20109;-65
2022/01/31 06:18:54;;;;;;;7.30;1.50;;;;;;;18.15;46.79;100793.66;5014028;28;20538;-64
2022/01/31 06:21:19;;;;;;;7.53;1.48;;;;;;;18.17;47.68;100793.53;5013527;28;20112;-65
2022/01/31 06:23:45;;;;;;;6.97;1.70;;;;;;;18.20;48.19;100796.75;5013062;28;20069;-65
2022/01/31 06:26:10;;;;;;;5.85;1.63;;;;;;;18.23;48.33;100799.16;5013549;28;20030;-65
2022/01/31 06:28:36;;;;;;;5.07;1.20;;;;;;;18.24;48.16;100787.63;5013930;28;20084;-65
2022/01/31 06:31:01;;;;;;;5.88;1.67;;;;;;;18.26;47.98;100788.34;5012170;28;20385;-66
2022/01/31 06:33:29;;;;;;;6.43;1.52;;;;;;;18.30;47.30;100799.47;5013152;28;20030;-65
2022/01/31 06:35:55;;;;;;;8.05;1.70;;;;;;;18.31;46.80;100798.53;5013891;28;20026;-65
2022/01/31 06:38:21;;;;;;;4.43;1.00;;;;;;;18.31;46.53;100783.50;5012442;28;20471;-65
2022/01/31 06:40:47;;;;;;;7.95;1.63;;;;;;;18.32;46.16;100781.72;5013305;28;20121;-64
2022/01/31 06:43:12;;;;;;;4.30;1.42;;;;;;;18.35;45.80;100783.25;5013509;28;20121;-65
2022/01/31 06:45:38;;;;;;;6.30;1.33;;;;;;;18.36;46.55;100782.28;5012633;28;20075;-65
2022/01/31 06:48:03;;;;;;;6.10;1.70;;;;;;;18.37;46.92;100786.59;5013394;28;20034;-65
2022/01/31 06:50:29;;;;;;;6.60;1.60;;;;;;;18.39;47.80;100790.81;5028265;28;20283;-64
2022/01/31 06:52:56;;;;;;;6.22;1.48;;;;;;;18.41;47.22;100793.31;5012999;28;20445;-65
2022/01/31 06:55:22;;;;;;;6.22;1.65;;;;;;;18.42;46.20;100792.31;5013041;28;20022;-64
2022/01/31 06:57:48;;;;;;;5.93;1.30;;;;;;;18.43;46.25;100789.56;5012730;28;20036;-65
2022/01/31 07:00:14;;;;;;;5.15;1.20;;;;;;;18.42;46.10;100787.91;5012985;28;20470;-65
2022/01/31 07:02:40;;;;;;;6.57;1.52;;;;;;;18.44;46.05;100785.97;5013123;28;20079;-65
2022/01/31 07:05:06;;;;;;;4.57;1.20;;;;;;;18.45;46.26;100802.63;5012481;28;20041;-64
2022/01/31 07:07:32;;;;;;;5.43;1.60;;;;;;;18.46;45.82;100794.59;5012874;28;20107;-65
2022/01/31 07:09:57;;;;;;;5.03;1.40;;;;;;;18.47;46.18;100813.91;5013244;28;20061;-65
2022/01/31 07:12:32;;;;;;;4.47;1.40;;;;;;;18.49;46.80;100798.78;5012105;28;20470;-65
2022/01/31 07:14:58;;;;;;;7.80;1.50;;;;;;;18.49;46.90;100782.94;5013274;28;20030;-65
2022/01/31 07:17:23;;;;;;;8.82;1.73;;;;;;;18.50;46.39;100787.28;5012583;28;20053;-65
2022/01/31 07:19:48;;;;;;;6.60;1.53;;;;;;;18.51;46.19;100777.53;5012240;28;20084;-66
2022/01/31 07:22:15;;;;;;;6.28;1.30;;;;;;;18.52;46.46;100771.28;5012684;28;20279;-66
2022/01/31 07:24:47;;;;;;;5.00;1.40;;;;;;;18.53;45.90;100772.97;5012779;28;20397;-66
2022/01/31 07:27:12;;;;;;;6.55;1.50;;;;;;;18.51;45.25;100764.34;5011971;28;20029;-65
2022/01/31 07:29:38;;;;;;;5.55;1.35;;;;;;;18.53;45.22;100763.22;5012971;28;20393;-65
2022/01/31 07:32:07;;;;;;;5.63;1.30;;;;;;;18.53;44.64;100763.22;5012827;28;20080;-65
2022/01/31 07:34:33;;;;;;;7.68;1.65;;;;;;;18.53;44.79;100755.31;5012066;28;20034;-65
2022/01/31 07:36:58;;;;;;;6.63;1.42;;;;;;;18.55;45.81;100760.47;5012977;28;20022;-63
2022/01/31 07:39:23;;;;;;;5.43;1.85;;;;;;;18.55;46.46;100771.03;5012585;28;20390;-62
2022/01/31 07:41:49;;;;;;;5.13;1.50;;;;;;;18.57;46.63;100774.41;5011480;28;20045;-65
2022/01/31 07:44:14;;;;;;;6.07;1.35;;;;;;;18.58;46.51;100778.69;5012197;28;20283;-66
2022/01/31 07:46:40;;;;;;;6.85;1.70;;;;;;;18.58;46.45;100807.72;5012624;28;20022;-65
2022/01/31 07:49:09;;;;;;;8.77;1.77;;;;;;;18.58;44.92;100808.56;5011788;28;20022;-65
2022/01/31 07:51:38;;;;;;;4.50;1.30;;;;;;;18.59;46.34;100797.03;5012844;28;20034;-67
2022/01/31 07:54:04;;;;;;;5.65;1.42;;;;;;;18.61;46.51;100810.97;5011908;28;20398;-66
2022/01/31 07:56:29;;;;;;;5.00;1.20;;;;;;;18.63;46.20;100806.38;5012084;28;20424;-67
2022/01/31 07:58:55;;;;;;;5.90;1.70;;;;;;;18.65;46.43;100796.53;5012608;28;20105;-66
2022/01/31 08:01:20;;;;;;;7.45;1.70;;;;;;;18.65;45.91;100799.16;5011531;28;20326;-66
2022/01/31 08:03:47;;;;;;;6.80;1.77;;;;;;;18.72;46.21;100806.56;5012390;28;20026;-66
2022/01/31 08:06:12;;;;;;;7.18;1.80;;;;;;;18.73;46.55;100787.13;5012402;28;20038;-66
2022/01/31 08:08:38;;;;;;;6.32;1.52;;;;;;;18.74;46.42;100780.88;5011839;28;20037;-67
2022/01/31 08:11:05;;;;;;;8.40;1.67;;;;;;;18.78;46.60;100803.41;5012358;28;20104;-65
2022/01/31 08:13:31;;;;;;;7.82;1.70;;;;;;;18.79;46.85;100798.00;5011832;28;20531;-65
2022/01/31 08:16:09;;;;;;;5.35;1.40;;;;;;;18.80;46.28;100802.31;5011822;28;20030;-65
2022/01/31 08:18:43;;;;;;;6.63;1.50;;;;;;;18.82;46.90;100795.09;5012472;28;20457;-65
2022/01/31 08:21:10;;;;;;;6.22;1.38;;;;;;;18.82;46.77;100794.28;5012148;28;20034;-65
2022/01/31 08:23:36;;;;;;;7.95;1.58;;;;;;;18.83;46.37;100788.88;5011724;28;20478;-66
2022/01/31 08:26:08;;;;;;;6.65;1.98;;;;;;;18.82;46.42;100808.31;5012569;28;20037;-66
2022/01/31 08:28:41;;;;;;;7.00;1.48;;;;;;;18.87;46.37;100815.00;5012204;28;20470;-66
2022/01/31 08:33:43;;;;;;;6.68;1.38;;;;;;;18.88;46.71;100801.69;5012364;28;20041;-65
2022/01/31 08:36:09;;;;;;;6.80;1.40;;;;;;;18.90;46.79;100812.97;5012090;28;20030;-65
2022/01/31 08:38:38;;;;;;;9.93;1.98;;;;;;;18.92;46.63;100808.38;5011780;28;20036;-66
2022/01/31 08:41:04;;;;;;;7.70;2.15;;;;;;;18.92;46.83;100824.22;5012454;28;20030;-67
2022/01/31 08:43:30;;;;;;;8.45;1.70;;;;;;;18.94;46.76;100827.56;5011168;28;20046;-66
2022/01/31 08:45:58;;;;;;;7.57;1.65;;;;;;;18.95;46.94;100805.50;5012703;28;20030;-66
2022/01/31 08:48:24;;;;;;;8.30;1.75;;;;;;;18.95;46.71;100831.91;5012597;28;20389;-66
2022/01/31 08:50:50;;;;;;;7.38;1.52;;;;;;;18.95;46.98;100826.63;5011867;28;20037;-68
2022/01/31 08:53:16;;;;;;;5.47;1.50;;;;;;;18.98;46.82;100804.41;5012693;28;20034;-69
2022/01/31 08:55:48;;;;;;;8.35;1.88;;;;;;;19.09;47.37;100817.53;5015524;28;20037;-69
2022/01/31 08:58:13;;;;;;;7.22;1.80;;;;;;;19.18;47.58;100816.75;5015870;28;20041;-68
2022/01/31 09:00:39;;;;;;;6.15;1.60;;;;;;;19.26;47.00;100821.34;5018616;28;20025;-66
2022/01/31 09:05:51;;;;;;;7.38;1.80;;;;;;;19.39;46.68;100848.38;5014597;28;20107;-69
2022/01/31 09:08:16;;;;;;;9.10;2.38;;;;;;;19.45;46.97;100852.28;5018951;28;20474;-70
2022/01/31 09:10:43;;;;;;;7.50;1.98;;;;;;;19.48;46.64;100840.63;5023591;28;20038;-70
2022/01/31 09:13:10;;;;;;;7.20;1.83;;;;;;;19.53;46.72;100875.41;5019531;28;20057;-70
2022/01/31 09:15:35;;;;;;;9.15;1.98;;;;;;;19.56;46.73;100865.41;5018739;28;20029;-68
2022/01/31 09:18:01;;;;;;;9.40;1.65;;;;;;;19.61;46.89;100858.91;5015931;28;20018;-69
2022/01/31 09:20:26;;;;;;;9.27;1.90;;;;;;;19.64;46.52;100846.22;5014535;28;20026;-69
2022/01/31 09:22:51;;;;;;;7.60;1.77;;;;;;;19.68;46.66;100852.94;5016871;28;20056;-69
2022/01/31 09:25:17;;;;;;;7.28;1.60;;;;;;;19.71;46.88;100843.88;5016864;28;20045;-68
2022/01/31 09:27:42;;;;;;;7.25;2.05;;;;;;;19.68;44.04;100837.06;5015134;28;20482;-69
2022/01/31 09:30:12;;;;;;;9.00;1.83;;;;;;;19.70;44.64;100844.88;5015264;28;20029;-69
2022/01/31 09:32:38;;;;;;;9.18;2.00;;;;;;;19.67;43.89;100858.34;5014588;28;20112;-66
2022/01/31 09:35:04;;;;;;;7.07;2.10;;;;;;;19.69;45.62;100856.41;5015409;28;20160;-68
2022/01/31 09:37:31;;;;;;;6.78;1.90;;;;;;;19.70;45.22;100858.09;5014884;28;20141;-69
2022/01/31 09:40:03;;;;;;;10.30;1.90;;;;;;;19.72;45.29;100841.09;5016885;28;20021;-68
2022/01/31 09:42:36;;;;;;;8.20;2.25;;;;;;;19.72;44.93;100858.78;5018263;28;20060;-68
2022/01/31 09:50:13;;;;;;;6.40;1.97;;;;;;;19.72;45.12;100886.06;5022136;28;20060;-68
2022/01/31 09:52:38;;;;;;;6.13;1.70;;;;;;;19.75;45.34;100882.31;5021484;28;20561;-68
2022/01/31 09:55:08;;;;;;;7.05;1.92;;;;;;;19.73;45.18;100887.72;5020544;28;20049;-69
2022/01/31 09:57:33;;;;;;;7.00;1.92;;;;;;;19.70;45.60;100888.00;5015418;28;20018;-70
2022/01/31 10:00:03;;;;;;;9.13;2.05;;;;;;;19.64;45.64;100904.41;5014782;28;20532;-67
2022/01/31 10:02:29;;;;;;;6.85;1.83;;;;;;;19.58;45.50;100902.28;5013425;28;20506;-68
2022/01/31 10:04:54;;;;;;;6.53;1.70;;;;;;;19.52;45.79;100924.81;5014441;28;20108;-69
2022/01/31 10:07:21;;;;;;;8.07;2.38;;;;;;;19.45;45.97;100923.66;5013902;28;20124;-68
2022/01/31 10:09:47;;;;;;;9.05;1.95;;;;;;;19.42;46.03;100918.63;5013712;28;20025;-68
2022/01/31 10:16:24;;;;;;;9.25;1.90;;;;;;;19.40;46.22;100929.31;5014472;28;20030;-66
2022/01/31 10:18:01;;;;;;;9.93;1.90;;;;;;;19.54;46.14;100936.09;5014608;28;20087;-67
2022/01/31 10:20:30;;;;;;;10.02;2.63;;;;;;;19.60;46.36;100929.44;5013936;28;20034;-68
2022/01/31 10:23:25;;;;;;;9.85;2.30;;;;;;;19.57;45.92;100933.19;5013665;28;20040;-66
2022/01/31 10:25:50;;;;;;;10.52;2.10;;;;;;;19.52;45.40;100948.59;5022058;28;20112;-66
2022/01/31 10:28:19;;;;;;;10.93;2.50;;;;;;;19.49;45.49;100967.38;5013725;28;20026;-68
2022/01/31 10:30:47;;;;;;;6.38;2.08;;;;;;;19.44;45.93;100972.22;5013001;28;20284;-68
2022/01/31 10:33:13;;;;;;;9.43;1.98;;;;;;;19.41;45.99;100980.41;5013479;28;20026;-68
2022/01/31 10:35:40;;;;;;;7.97;2.45;;;;;;;19.38;46.11;100972.72;5013729;28;20363;-68
2022/01/31 10:38:14;;;;;;;7.95;1.88;;;;;;;19.35;45.84;100994.13;5012960;28;20455;-68
2022/01/31 10:54:13;;;;;;;8.18;1.92;;;;;;;19.19;46.84;100992.75;5013662;28;20042;-66
2022/01/31 10:56:44;;;;;;;6.75;1.90;;;;;;;19.18;47.01;100996.38;5013377;28;20034;-66
2022/01/31 10:59:18;;;;;;;10.25;2.13;;;;;;;19.16;46.33;100994.81;5012482;28;20029;-67
2022/01/31 11:01:47;;;;;;;;;;;;;;;19.13;46.56;101009.13;5013859;28;20173;-67
2022/01/31 11:04:15;;;;;;;8.07;1.98;;;;;;;19.14;46.41;101026.66;5012433;28;19917;-67
2022/01/31 11:06:42;;;;;;;10.50;2.63;;;;;;;19.14;46.18;101007.34;5013224;28;20045;-67
2022/01/31 11:09:10;;;;;;;9.25;2.88;;;;;;;19.11;47.14;101003.13;5013000;28;20524;-67
2022/01/31 11:11:38;;;;;;;9.38;2.55;;;;;;;19.11;47.22;100995.19;5012514;28;20034;-66
2022/01/31 11:14:05;;;;;;;10.55;2.42;;;;;;;19.10;46.88;100997.97;5013506;28;20390;-67
2022/01/31 11:16:31;;;;;;;8.82;2.22;;;;;;;19.09;46.72;101013.00;5013016;28;20018;-67
2022/01/31 11:19:01;;;;;;;10.23;2.60;;;;;;;19.09;47.34;101020.91;5012249;28;20104;-67
2022/01/31 11:21:30;;;;;;;8.93;2.53;;;;;;;19.08;46.55;101016.59;5012934;28;20849;-67
2022/01/31 11:24:02;;;;;;;10.05;2.40;;;;;;;19.07;46.57;101022.81;5013311;28;20429;-65
2022/01/31 11:26:34;;;;;;;9.50;2.80;;;;;;;19.07;46.77;101029.94;5012260;28;20056;-65
2022/01/31 11:29:02;;;;;;;11.05;3.05;;;;;;;19.07;47.19;101027.28;5013168;28;20524;-68
2022/01/31 11:31:28;;;;;;;9.93;2.55;;;;;;;19.06;46.89;101041.44;5012873;28;20548;-67
2022/01/31 11:33:56;;;;;;;9.75;2.85;;;;;;;19.05;46.22;101016.84;5012121;28;20034;-69
2022/01/31 11:36:22;;;;;;;9.27;2.35;;;;;;;19.05;46.41;101032.69;5012468;28;20022;-67
2022/01/31 11:38:48;;;;;;;8.90;2.10;;;;;;;19.05;46.61;101030.06;5013095;28;20120;-66
2022/01/31 11:41:16;;;;;;;9.32;2.47;;;;;;;19.06;46.16;101049.38;5011678;28;20095;-66
2022/01/31 11:43:56;;;;;;;10.00;3.08;;;;;;;19.06;46.28;101044.94;5012815;28;20026;-67
2022/01/31 11:46:24;;;;;;;13.13;5.57;;;;;;;19.06;46.44;101044.94;5011580;28;20022;-67
2022/01/31 11:48:52;;;;;;;14.73;7.70;;;;;;;19.05;46.50;101053.00;5012660;28;20061;-67
2022/01/31 11:51:18;;;;;;;16.33;8.95;;;;;;;19.04;46.77;101049.50;5012569;28;20034;-67
2022/01/31 11:53:43;;;;;;;16.00;9.23;;;;;;;19.05;47.36;101043.25;5011914;28;20029;-67